createdAt,value
2018-09-03T00:00:47.689Z,191.20
2018-09-03T00:01:47.682Z,202.30
2018-09-03T00:02:47.687Z,193.00
2018-09-03T00:03:47.717Z,194.70
2018-09-03T00:04:47.686Z,183.90
2018-09-03T00:05:47.687Z,185.60
2018-09-03T00:06:47.691Z,191.10
2018-09-03T00:07:47.684Z,191.80
2018-09-03T00:08:47.715Z,201.90
2018-09-03T00:09:47.687Z,191.50
2018-09-03T00:10:47.687Z,192.40
2018-09-03T00:11:47.701Z,201.30
2018-09-03T00:12:48.339Z,179.50
2018-09-03T00:13:47.719Z,183.60
2018-09-03T00:14:47.688Z,200.70
2018-09-03T00:15:47.684Z,189.40
2018-09-03T00:16:47.688Z,190.60
2018-09-03T00:17:47.687Z,192.30
2018-09-03T00:18:47.718Z,203.10
2018-09-03T00:19:47.684Z,190.60
2018-09-03T00:20:47.690Z,188.40
2018-09-03T00:21:47.690Z,200.70
2018-09-03T00:22:47.720Z,199.60
2018-09-03T00:23:47.690Z,193.60
2018-09-03T00:24:47.689Z,204.60
2018-09-03T00:25:47.694Z,194.50
2018-09-03T00:26:47.688Z,185.50
2018-09-03T00:27:47.717Z,206.60
2018-09-03T00:28:47.689Z,204.80
2018-09-03T00:29:47.691Z,219.30
2018-09-03T00:30:47.689Z,204.40
2018-09-03T00:31:47.685Z,213.70
2018-09-03T00:32:47.714Z,193.40
2018-09-03T00:33:47.690Z,201.80
2018-09-03T00:34:47.690Z,205.10
2018-09-03T00:35:47.687Z,203.20
2018-09-03T00:36:47.715Z,204.20
2018-09-03T00:37:47.691Z,194.30
2018-09-03T00:38:47.690Z,202.10
2018-09-03T00:39:47.691Z,208.00
2018-09-03T00:40:47.688Z,216.30
2018-09-03T00:41:47.715Z,210.00
2018-09-03T00:42:47.692Z,221.50
2018-09-03T00:43:47.687Z,210.10
2018-09-03T00:44:47.692Z,212.70
2018-09-03T00:45:47.690Z,202.50
2018-09-03T00:46:47.719Z,211.90
2018-09-03T00:47:47.690Z,206.50
2018-09-03T00:48:47.692Z,219.70
2018-09-03T00:49:47.692Z,212.50
2018-09-03T00:50:47.692Z,214.50
2018-09-03T00:51:47.722Z,213.20
2018-09-03T00:52:47.693Z,199.10
2018-09-03T00:53:47.694Z,199.50
2018-09-03T00:54:47.691Z,202.40
2018-09-03T00:55:47.689Z,198.30
2018-09-03T00:56:47.720Z,191.90
2018-09-03T00:57:47.689Z,197.40
2018-09-03T00:58:47.690Z,198.40
2018-09-03T00:59:47.690Z,197.30
2018-09-03T01:00:47.693Z,189.10
2018-09-03T01:01:47.718Z,183.20
2018-09-03T01:02:47.697Z,183.50
2018-09-03T01:03:47.693Z,171.90
2018-09-03T01:04:47.695Z,162.90
2018-09-03T01:05:47.691Z,169.70
2018-09-03T01:06:47.719Z,163.90
2018-09-03T01:07:47.691Z,164.30
2018-09-03T01:08:47.699Z,163.40
2018-09-03T01:09:47.688Z,175.90
2018-09-03T01:10:47.691Z,169.80
2018-09-03T01:11:47.718Z,172.40
2018-09-03T01:12:47.696Z,175.80
2018-09-03T01:13:47.691Z,173.20
2018-09-03T01:14:47.689Z,181.60
2018-09-03T01:15:47.692Z,191.90
2018-09-03T01:16:47.720Z,186.60
2018-09-03T01:17:47.692Z,196.20
2018-09-03T01:18:47.693Z,188.00
2018-09-03T01:19:47.693Z,192.40
2018-09-03T01:20:47.720Z,197.90
2018-09-03T01:21:47.692Z,184.40
2018-09-03T01:22:47.692Z,186.20
2018-09-03T01:23:47.696Z,203.80
2018-09-03T01:24:47.701Z,173.60
2018-09-03T01:25:47.721Z,174.40
2018-09-03T01:26:47.694Z,173.90
2018-09-03T01:27:47.693Z,203.40
2018-09-03T01:28:47.696Z,183.40
2018-09-03T01:29:47.697Z,179.80
2018-09-03T01:30:47.722Z,177.30
2018-09-03T01:31:47.695Z,192.90
2018-09-03T01:32:47.696Z,214.80
2018-09-03T01:33:47.722Z,208.10
2018-09-03T01:34:47.695Z,200.70
2018-09-03T01:35:47.697Z,191.20
2018-09-03T01:36:47.710Z,211.60
2018-09-03T01:37:47.694Z,214.40
2018-09-03T01:38:47.721Z,222.30
2018-09-03T01:39:47.692Z,197.70
2018-09-03T01:40:47.699Z,211.80
2018-09-03T01:41:47.723Z,193.10
2018-09-03T01:42:47.695Z,213.70
2018-09-03T01:43:47.698Z,207.60
2018-09-03T01:44:47.697Z,224.40
2018-09-03T01:45:47.723Z,216.70
2018-09-03T01:46:47.699Z,244.70
2018-09-03T01:47:47.697Z,228.20
2018-09-03T01:48:48.728Z,225.90
2018-09-03T01:49:47.695Z,252.00
2018-09-03T01:50:47.696Z,232.30
2018-09-03T01:51:47.724Z,222.00
2018-09-03T01:52:47.813Z,249.80
2018-09-03T01:53:47.697Z,241.10
2018-09-03T01:54:47.696Z,231.50
2018-09-03T01:55:47.728Z,250.50
2018-09-03T01:56:47.701Z,255.90
2018-09-03T01:57:47.692Z,245.60
2018-09-03T01:58:47.700Z,250.80
2018-09-03T01:59:47.701Z,242.00
2018-09-03T02:00:47.725Z,269.80
2018-09-03T02:01:47.701Z,273.50
2018-09-03T02:02:47.706Z,285.10
2018-09-03T02:03:47.723Z,291.70
2018-09-03T02:04:47.702Z,279.30
2018-09-03T02:05:47.735Z,301.00
2018-09-03T02:06:47.704Z,308.10
2018-09-03T02:07:47.700Z,314.10
2018-09-03T02:08:47.702Z,399.50
2018-09-03T02:09:47.695Z,415.60
2018-09-03T02:10:47.730Z,443.60
2018-09-03T02:11:47.699Z,404.00
2018-09-03T02:12:47.703Z,464.40
2018-09-03T02:13:47.727Z,404.10
2018-09-03T02:14:47.707Z,482.40
2018-09-03T02:15:47.701Z,508.50
2018-09-03T02:16:47.723Z,510.20
2018-09-03T02:17:47.704Z,568.20
2018-09-03T02:18:47.731Z,547.10
2018-09-03T02:19:47.700Z,413.20
2018-09-03T02:20:47.703Z,601.80
2018-09-03T02:21:47.738Z,609.90
2018-09-03T02:22:47.704Z,635.10
2018-09-03T02:23:47.700Z,518.30
2018-09-03T02:24:47.704Z,647.00
2018-09-03T02:25:47.736Z,571.20
2018-09-03T02:26:47.704Z,549.20
2018-09-03T02:27:47.701Z,630.60
2018-09-03T02:28:47.705Z,631.00
2018-09-03T02:29:47.705Z,548.30
2018-09-03T02:30:47.731Z,493.10
2018-09-03T02:31:47.701Z,569.70
2018-09-03T02:32:47.705Z,589.10
2018-09-03T02:33:47.705Z,517.50
2018-09-03T02:34:47.707Z,464.70
2018-09-03T02:35:47.730Z,628.40
2018-09-03T02:36:47.734Z,616.70
2018-09-03T02:37:47.706Z,608.10
2018-09-03T02:38:47.703Z,671.90
2018-09-03T02:39:47.702Z,710.10
2018-09-03T02:40:47.707Z,797.90
2018-09-03T02:41:47.732Z,702.00
2018-09-03T02:42:47.846Z,709.40
2018-09-03T02:43:47.703Z,677.50
2018-09-03T02:44:47.707Z,690.80
2018-09-03T02:45:47.739Z,534.20
2018-09-03T02:46:47.712Z,502.80
2018-09-03T02:47:47.708Z,479.10
2018-09-03T02:48:47.707Z,447.50
2018-09-03T02:49:47.708Z,476.50
2018-09-03T02:50:47.736Z,588.10
2018-09-03T02:51:47.704Z,551.70
2018-09-03T02:52:47.707Z,565.70
2018-09-03T02:53:47.708Z,626.20
2018-09-03T02:54:47.708Z,495.70
2018-09-03T02:55:47.736Z,535.60
2018-09-03T02:56:47.704Z,525.60
2018-09-03T02:57:47.723Z,540.10
2018-09-03T02:58:47.709Z,539.10
2018-09-03T02:59:47.705Z,522.00
2018-09-03T03:00:47.737Z,542.40
2018-09-03T03:01:47.709Z,480.70
2018-09-03T03:02:47.711Z,432.30
2018-09-03T03:03:47.709Z,482.20
2018-09-03T03:04:47.710Z,447.10
2018-09-03T03:05:47.741Z,445.60
2018-09-03T03:06:47.710Z,456.00
2018-09-03T03:07:47.707Z,461.70
2018-09-03T03:08:47.713Z,520.70
2018-09-03T03:09:47.709Z,480.90
2018-09-03T03:10:47.742Z,609.60
2018-09-03T03:11:47.763Z,407.10
2018-09-03T03:12:47.870Z,427.60
2018-09-03T03:13:47.735Z,527.30
2018-09-03T03:14:47.711Z,668.70
2018-09-03T03:15:47.736Z,588.40
2018-09-03T03:16:47.711Z,488.10
2018-09-03T03:17:47.732Z,517.70
2018-09-03T03:18:47.712Z,594.80
2018-09-03T03:19:47.711Z,599.40
2018-09-03T03:20:47.741Z,576.40
2018-09-03T03:21:47.711Z,537.70
2018-09-03T03:22:47.712Z,524.80
2018-09-03T03:23:47.707Z,544.80
2018-09-03T03:24:47.710Z,467.40
2018-09-03T03:25:47.737Z,529.20
2018-09-03T03:26:47.708Z,499.20
2018-09-03T03:27:47.712Z,545.60
2018-09-03T03:28:47.712Z,623.10
2018-09-03T03:29:47.737Z,578.20
2018-09-03T03:30:47.708Z,613.80
2018-09-03T03:31:47.710Z,461.10
2018-09-03T03:32:47.800Z,602.40
2018-09-03T03:33:47.708Z,678.80
2018-09-03T03:34:47.708Z,726.10
2018-09-03T03:35:47.747Z,675.40
2018-09-03T03:36:47.716Z,667.00
2018-09-03T03:37:47.710Z,539.00
2018-09-03T03:38:47.716Z,517.80
2018-09-03T03:39:47.709Z,683.20
2018-09-03T03:40:47.737Z,610.40
2018-09-03T03:41:51.625Z,654.20
2018-09-03T03:42:47.709Z,766.30
2018-09-03T03:43:47.708Z,584.00
2018-09-03T03:44:47.717Z,696.30
2018-09-03T03:45:47.738Z,745.50
2018-09-03T03:46:47.710Z,754.60
2018-09-03T03:47:48.389Z,677.90
2018-09-03T03:48:47.784Z,630.50
2018-09-03T03:49:47.708Z,532.10
2018-09-03T03:50:47.739Z,623.00
2018-09-03T03:51:47.708Z,656.20
2018-09-03T03:52:47.843Z,654.90
2018-09-03T03:53:47.707Z,672.20
2018-09-03T03:54:47.704Z,561.20
2018-09-03T03:55:47.736Z,557.00
2018-09-03T03:56:47.709Z,530.80
2018-09-03T03:57:47.708Z,524.50
2018-09-03T03:58:47.706Z,706.30
2018-09-03T03:59:47.712Z,743.90
2018-09-03T04:00:47.741Z,564.70
2018-09-03T04:01:47.730Z,562.30
2018-09-03T04:02:47.713Z,546.50
2018-09-03T04:03:47.709Z,528.70
2018-09-03T04:04:47.708Z,481.70
2018-09-03T04:05:47.738Z,474.40
2018-09-03T04:06:47.714Z,510.20
2018-09-03T04:07:47.709Z,503.10
2018-09-03T04:08:47.726Z,504.50
2018-09-03T04:09:47.710Z,729.00
2018-09-03T04:10:47.734Z,636.70
2018-09-03T04:11:47.738Z,498.30
2018-09-03T04:12:47.882Z,499.00
2018-09-03T04:13:47.714Z,468.30
2018-09-03T04:14:47.707Z,545.50
2018-09-03T04:15:47.712Z,505.60
2018-09-03T04:16:47.740Z,515.90
2018-09-03T04:17:47.719Z,443.70
2018-09-03T04:18:47.712Z,554.60
2018-09-03T04:19:47.707Z,445.50
2018-09-03T04:20:47.707Z,464.60
2018-09-03T04:21:47.735Z,418.10
2018-09-03T04:22:47.715Z,380.80
2018-09-03T04:23:47.773Z,466.30
2018-09-03T04:24:47.707Z,544.30
2018-09-03T04:25:47.704Z,653.80
2018-09-03T04:26:47.740Z,626.90
2018-09-03T04:27:47.709Z,525.50
2018-09-03T04:28:47.756Z,389.00
2018-09-03T04:29:47.708Z,501.80
2018-09-03T04:30:47.708Z,452.00
2018-09-03T04:31:47.741Z,511.00
2018-09-03T04:32:47.926Z,453.20
2018-09-03T04:33:47.705Z,699.40
2018-09-03T04:34:47.709Z,767.70
2018-09-03T04:35:47.714Z,636.40
2018-09-03T04:36:47.735Z,631.40
2018-09-03T04:37:47.709Z,674.70
2018-09-03T04:38:47.795Z,407.00
2018-09-03T04:39:47.706Z,440.60
2018-09-03T04:40:47.711Z,373.30
2018-09-03T04:41:47.742Z,455.10
2018-09-03T04:42:47.710Z,473.60
2018-09-03T04:43:47.709Z,504.50
2018-09-03T04:44:47.706Z,480.80
2018-09-03T04:45:47.711Z,614.00
2018-09-03T04:46:47.735Z,579.40
2018-09-03T04:47:47.707Z,518.20
2018-09-03T04:48:47.705Z,546.20
2018-09-03T04:49:47.739Z,414.70
2018-09-03T04:50:47.715Z,395.50
2018-09-03T04:51:47.736Z,340.00
2018-09-03T04:52:47.856Z,324.00
2018-09-03T04:53:47.712Z,349.40
2018-09-03T04:54:47.726Z,364.80
2018-09-03T04:55:47.708Z,316.10
2018-09-03T04:56:47.736Z,363.80
2018-09-03T04:57:47.706Z,374.10
2018-09-03T04:58:47.711Z,416.90
2018-09-03T04:59:47.709Z,303.70
2018-09-03T05:00:47.706Z,421.40
2018-09-03T05:01:47.743Z,374.80
2018-09-03T05:02:47.711Z,396.20
2018-09-03T05:03:48.383Z,377.70
2018-09-03T05:04:47.705Z,350.20
2018-09-03T05:05:47.777Z,409.20
2018-09-03T05:06:47.738Z,377.40
2018-09-03T05:07:47.710Z,327.10
2018-09-03T05:08:47.706Z,306.00
2018-09-03T05:09:49.767Z,332.20
2018-09-03T05:10:51.266Z,351.30
2018-09-03T05:11:48.646Z,336.00
2018-09-03T05:12:54.620Z,340.10
2018-09-03T05:13:47.792Z,358.50
2018-09-03T05:14:47.713Z,420.50
2018-09-03T05:15:47.743Z,372.50
2018-09-03T05:16:53.750Z,427.40
2018-09-03T05:17:50.392Z,401.50
2018-09-03T05:18:50.288Z,313.10
2018-09-03T05:19:48.098Z,295.90
2018-09-03T05:20:50.363Z,303.00
2018-09-03T05:21:49.246Z,330.20
2018-09-03T05:22:48.110Z,348.80
2018-09-03T05:23:47.712Z,347.50
2018-09-03T05:24:47.788Z,303.40
2018-09-03T05:25:47.736Z,309.50
2018-09-03T05:26:47.740Z,280.40
2018-09-03T05:27:47.717Z,323.00
2018-09-03T05:28:47.710Z,346.30
2018-09-03T05:29:47.721Z,296.70
2018-09-03T05:30:48.383Z,287.10
2018-09-03T05:31:47.748Z,298.00
2018-09-03T05:32:47.715Z,283.90
2018-09-03T05:33:47.715Z,291.80
2018-09-03T05:34:47.719Z,303.30
2018-09-03T05:35:47.811Z,300.50
2018-09-03T05:36:47.711Z,309.10
2018-09-03T05:37:47.720Z,296.30
2018-09-03T05:38:47.719Z,264.70
2018-09-03T05:39:47.867Z,353.20
2018-09-03T05:40:47.749Z,365.80
2018-09-03T05:41:47.716Z,352.70
2018-09-03T05:42:47.718Z,323.20
2018-09-03T05:43:47.774Z,257.20
2018-09-03T05:44:47.716Z,268.60
2018-09-03T05:45:47.740Z,266.00
2018-09-03T05:46:47.718Z,294.40
2018-09-03T05:47:47.724Z,309.70
2018-09-03T05:48:47.724Z,269.30
2018-09-03T05:49:47.724Z,261.50
2018-09-03T05:50:47.836Z,275.20
2018-09-03T05:51:47.921Z,314.60
2018-09-03T05:52:47.723Z,294.00
2018-09-03T05:53:47.719Z,324.20
2018-09-03T05:54:47.723Z,322.70
2018-09-03T05:55:47.721Z,278.50
2018-09-03T05:56:47.749Z,264.40
2018-09-03T05:57:47.721Z,250.80
2018-09-03T05:58:47.718Z,241.10
2018-09-03T05:59:47.727Z,238.50
2018-09-03T06:00:47.727Z,242.90
2018-09-03T06:01:47.754Z,264.30
2018-09-03T06:02:47.721Z,248.00
2018-09-03T06:03:48.021Z,248.80
2018-09-03T06:04:47.770Z,268.50
2018-09-03T06:05:50.895Z,241.80
2018-09-03T06:06:47.722Z,274.30
2018-09-03T06:07:47.722Z,256.80
2018-09-03T06:08:47.723Z,247.20
2018-09-03T06:09:47.721Z,264.20
2018-09-03T06:10:47.846Z,249.30
2018-09-03T06:11:47.727Z,263.50
2018-09-03T06:12:47.734Z,266.00
2018-09-03T06:13:47.728Z,316.60
2018-09-03T06:14:47.729Z,276.70
2018-09-03T06:15:47.756Z,278.00
2018-09-03T06:16:47.728Z,258.40
2018-09-03T06:17:47.764Z,269.50
2018-09-03T06:18:47.725Z,310.30
2018-09-03T06:19:47.728Z,302.40
2018-09-03T06:20:47.756Z,329.40
2018-09-03T06:21:48.265Z,335.00
2018-09-03T06:22:47.726Z,349.90
2018-09-03T06:23:47.729Z,387.90
2018-09-03T06:24:47.729Z,400.90
2018-09-03T06:25:47.756Z,344.60
2018-09-03T06:26:47.837Z,353.10
2018-09-03T06:27:47.730Z,268.60
2018-09-03T06:28:47.729Z,274.10
2018-09-03T06:29:47.729Z,254.70
2018-09-03T06:30:47.726Z,266.30
2018-09-03T06:31:47.761Z,262.60
2018-09-03T06:32:47.791Z,277.10
2018-09-03T06:33:47.730Z,271.90
2018-09-03T06:34:47.731Z,216.20
2018-09-03T06:35:47.741Z,224.00
2018-09-03T06:36:47.759Z,184.90
2018-09-03T06:37:47.731Z,202.30
2018-09-03T06:38:47.737Z,203.50
2018-09-03T06:39:47.736Z,192.60
2018-09-03T06:40:47.730Z,185.30
2018-09-03T06:41:47.759Z,194.40
2018-09-03T06:42:47.735Z,205.90
2018-09-03T06:43:47.732Z,209.70
2018-09-03T06:44:47.731Z,197.50
2018-09-03T06:45:47.745Z,186.80
2018-09-03T06:46:47.756Z,216.00
2018-09-03T06:47:47.732Z,231.20
2018-09-03T06:48:47.732Z,225.40
2018-09-03T06:49:47.732Z,214.20
2018-09-03T06:50:47.736Z,195.30
2018-09-03T06:51:47.757Z,195.70
2018-09-03T06:52:47.778Z,211.20
2018-09-03T06:53:47.733Z,163.30
2018-09-03T06:54:47.733Z,157.70
2018-09-03T06:55:47.733Z,138.20
2018-09-03T06:56:47.765Z,145.10
2018-09-03T06:57:47.733Z,141.40
2018-09-03T06:58:47.729Z,130.50
2018-09-03T06:59:48.274Z,133.70
2018-09-03T07:00:47.766Z,145.80
2018-09-03T07:01:47.746Z,154.10
2018-09-03T07:02:47.759Z,139.20
2018-09-03T07:03:47.743Z,132.80
2018-09-03T07:04:48.095Z,124.20
2018-09-03T07:05:47.737Z,142.90
2018-09-03T07:06:47.811Z,121.80
2018-09-03T07:07:47.763Z,103.30
2018-09-03T07:08:47.734Z,115.80
2018-09-03T07:09:47.738Z,125.80
2018-09-03T07:10:47.766Z,101.50
2018-09-03T07:11:47.739Z,103.20
2018-09-03T07:12:47.762Z,114.30
2018-09-03T07:13:47.740Z,110.20
2018-09-03T07:14:47.738Z,115.50
2018-09-03T07:15:48.320Z,120.90
2018-09-03T07:16:47.769Z,122.90
2018-09-03T07:17:47.740Z,116.10
2018-09-03T07:18:47.755Z,103.80
2018-09-03T07:19:47.746Z,103.10
2018-09-03T07:20:47.772Z,98.50
2018-09-03T07:21:47.745Z,96.30
2018-09-03T07:22:47.772Z,85.80
2018-09-03T07:23:47.740Z,97.60
2018-09-03T07:24:47.749Z,90.00
2018-09-03T07:25:47.753Z,82.30
2018-09-03T07:26:47.782Z,78.80
2018-09-03T07:27:48.346Z,80.40
2018-09-03T07:28:48.411Z,65.30
2018-09-03T07:29:48.345Z,69.10
2018-09-03T07:30:48.408Z,81.60
2018-09-03T07:31:49.346Z,80.50
2018-09-03T07:32:47.749Z,73.40
2018-09-03T07:33:47.751Z,68.10
2018-09-03T07:34:47.754Z,64.50
2018-09-03T07:35:47.782Z,59.70
2018-09-03T07:36:47.755Z,61.70
2018-09-03T07:37:47.787Z,60.80
2018-09-03T07:38:47.757Z,55.50
2018-09-03T07:39:47.754Z,57.60
2018-09-03T07:40:47.795Z,51.90
2018-09-03T07:41:47.757Z,56.70
2018-09-03T07:42:47.763Z,49.50
2018-09-03T07:43:47.759Z,45.70
2018-09-03T07:44:47.763Z,44.40
2018-09-03T07:45:47.792Z,40.50
2018-09-03T07:46:47.768Z,39.90
2018-09-03T07:47:47.783Z,43.90
2018-09-03T07:48:47.773Z,43.50
2018-09-03T07:49:47.768Z,42.10
2018-09-03T07:50:47.796Z,39.30
2018-09-03T07:51:47.771Z,40.10
2018-09-03T07:52:47.773Z,39.10
2018-09-03T07:53:47.780Z,42.40
2018-09-03T07:54:47.777Z,38.90
2018-09-03T07:55:47.806Z,39.40
2018-09-03T07:56:47.780Z,40.00
2018-09-03T07:57:47.807Z,41.10
2018-09-03T07:58:47.785Z,35.70
2018-09-03T07:59:47.781Z,38.70
2018-09-03T08:00:47.790Z,34.90
2018-09-03T08:01:47.817Z,35.20
2018-09-03T08:02:47.790Z,33.10
2018-09-03T08:03:47.793Z,33.10
2018-09-03T08:04:47.792Z,32.30
2018-09-03T08:05:47.795Z,28.40
2018-09-03T08:06:47.823Z,31.20
2018-09-03T08:07:47.795Z,26.00
2018-09-03T08:08:47.803Z,28.10
2018-09-03T08:09:47.799Z,24.90
2018-09-03T08:10:47.803Z,26.50
2018-09-03T08:11:47.825Z,28.60
2018-09-03T08:12:47.865Z,31.90
2018-09-03T08:13:47.814Z,32.70
2018-09-03T08:14:47.808Z,33.00
2018-09-03T08:15:47.808Z,32.40
2018-09-03T08:16:47.840Z,31.70
2018-09-03T08:17:47.816Z,33.50
2018-09-03T08:18:47.817Z,31.10
2018-09-03T08:19:47.810Z,32.30
2018-09-03T08:20:47.816Z,31.00
2018-09-03T08:21:47.849Z,34.00
2018-09-03T08:22:47.825Z,34.10
2018-09-03T08:23:47.822Z,32.60
2018-09-03T08:24:47.829Z,32.70
2018-09-03T08:25:47.827Z,29.80
2018-09-03T08:26:47.853Z,32.40
2018-09-03T08:27:47.827Z,32.70
2018-09-03T08:28:47.833Z,33.50
2018-09-03T08:29:47.830Z,38.10
2018-09-03T08:30:47.835Z,39.50
2018-09-03T08:31:47.858Z,36.70
2018-09-03T08:32:47.833Z,36.80
2018-09-03T08:33:47.842Z,40.50
2018-09-03T08:34:47.835Z,44.00
2018-09-03T08:35:47.834Z,42.50
2018-09-03T08:36:47.879Z,41.60
2018-09-03T08:37:47.847Z,43.60
2018-09-03T08:38:47.840Z,45.30
2018-09-03T08:39:47.883Z,44.20
2018-09-03T08:40:47.844Z,43.40
2018-09-03T08:41:47.872Z,52.70
2018-09-03T08:42:47.847Z,42.60
2018-09-03T08:43:47.845Z,43.80
2018-09-03T08:44:47.894Z,45.70
2018-09-03T08:45:47.867Z,46.80
2018-09-03T08:46:47.895Z,48.10
2018-09-03T08:47:47.857Z,44.70
2018-09-03T08:48:48.289Z,48.80
2018-09-03T08:49:47.851Z,53.40
2018-09-03T08:50:47.850Z,50.00
2018-09-03T08:51:47.853Z,51.40
2018-09-03T08:52:49.390Z,48.80
2018-09-03T08:53:47.854Z,51.10
2018-09-03T08:54:47.850Z,49.30
2018-09-03T08:55:47.866Z,54.30
2018-09-03T08:56:47.900Z,55.00
2018-09-03T08:57:47.858Z,54.00
2018-09-03T08:58:48.097Z,53.80
2018-09-03T08:59:48.783Z,54.20
2018-09-03T09:00:47.876Z,52.70
2018-09-03T09:01:47.894Z,57.00
2018-09-03T09:02:47.862Z,55.10
2018-09-03T09:03:47.862Z,57.40
2018-09-03T09:04:47.869Z,60.60
2018-09-03T09:05:47.873Z,55.50
2018-09-03T09:06:48.098Z,58.60
2018-09-03T09:07:47.865Z,50.40
2018-09-03T09:08:47.865Z,55.40
2018-09-03T09:09:47.873Z,54.20
2018-09-03T09:10:47.861Z,56.90
2018-09-03T09:11:51.337Z,53.00
2018-09-03T09:12:48.128Z,48.90
2018-09-03T09:13:50.781Z,50.40
2018-09-03T09:14:48.020Z,45.90
2018-09-03T09:15:55.369Z,49.40
2018-09-03T09:16:47.975Z,49.40
2018-09-03T09:17:49.430Z,47.70
2018-09-03T09:18:48.842Z,46.80
2018-09-03T09:19:48.120Z,46.80
2018-09-03T09:20:48.189Z,44.90
2018-09-03T09:21:48.068Z,41.30
2018-09-03T09:22:49.841Z,40.70
2018-09-03T09:23:51.940Z,39.00
2018-09-03T09:24:48.008Z,39.90
2018-09-03T09:25:48.083Z,49.20
2018-09-03T09:26:47.920Z,41.40
2018-09-03T09:27:48.064Z,41.40
2018-09-03T09:28:47.895Z,40.70
2018-09-03T09:29:48.498Z,38.30
2018-09-03T09:30:48.045Z,39.90
2018-09-03T09:31:47.920Z,41.40
2018-09-03T09:32:48.022Z,39.40
2018-09-03T09:33:48.023Z,40.80
2018-09-03T09:34:47.991Z,41.10
2018-09-03T09:35:47.984Z,39.70
2018-09-03T09:36:47.942Z,45.10
2018-09-03T09:37:47.897Z,38.50
2018-09-03T09:38:47.903Z,37.90
2018-09-03T09:39:47.896Z,37.80
2018-09-03T09:40:47.899Z,38.60
2018-09-03T09:41:47.931Z,35.00
2018-09-03T09:42:47.914Z,34.30
2018-09-03T09:43:47.903Z,35.80
2018-09-03T09:44:47.930Z,31.60
2018-09-03T09:45:47.908Z,34.20
2018-09-03T09:46:47.907Z,34.70
2018-09-03T09:47:47.938Z,36.30
2018-09-03T09:48:47.902Z,36.10
2018-09-03T09:49:48.016Z,38.00
2018-09-03T09:50:47.909Z,35.90
2018-09-03T09:51:47.911Z,37.10
2018-09-03T09:52:47.949Z,36.80
2018-09-03T09:53:47.912Z,36.30
2018-09-03T09:54:47.929Z,35.50
2018-09-03T09:55:47.907Z,35.70
2018-09-03T09:56:47.957Z,34.70
2018-09-03T09:57:47.916Z,33.60
2018-09-03T09:58:47.975Z,32.60
2018-09-03T09:59:47.956Z,30.20
2018-09-03T10:00:47.925Z,31.40
2018-09-03T10:01:47.959Z,32.50
2018-09-03T10:02:47.929Z,30.80
2018-09-03T10:03:47.925Z,31.70
2018-09-03T10:04:47.924Z,31.50
2018-09-03T10:05:47.935Z,30.70
2018-09-03T10:06:47.961Z,32.10
2018-09-03T10:07:47.970Z,29.80
2018-09-03T10:08:48.034Z,29.50
2018-09-03T10:09:47.965Z,30.60
2018-09-03T10:10:47.932Z,28.20
2018-09-03T10:11:47.925Z,25.10
2018-09-03T10:12:47.965Z,24.80
2018-09-03T10:13:47.934Z,25.40
2018-09-03T10:14:47.935Z,25.60
2018-09-03T10:15:47.942Z,25.10
2018-09-03T10:16:47.965Z,19.20
2018-09-03T10:17:47.944Z,22.30
2018-09-03T10:18:47.939Z,21.50
2018-09-03T10:19:47.970Z,21.60
2018-09-03T10:20:48.009Z,22.40
2018-09-03T10:21:47.937Z,20.80
2018-09-03T10:22:47.963Z,19.20
2018-09-03T10:23:47.943Z,18.50
2018-09-03T10:24:47.946Z,17.00
2018-09-03T10:25:47.946Z,16.90
2018-09-03T10:26:47.947Z,17.40
2018-09-03T10:27:47.976Z,18.90
2018-09-03T10:28:47.949Z,17.00
2018-09-03T10:29:47.988Z,19.40
2018-09-03T10:30:47.959Z,18.80
2018-09-03T10:31:48.011Z,19.00
2018-09-03T10:32:47.992Z,19.30
2018-09-03T10:33:47.957Z,21.20
2018-09-03T10:34:47.965Z,21.10
2018-09-03T10:35:47.965Z,17.60
2018-09-03T10:36:47.971Z,18.60
2018-09-03T10:37:48.001Z,19.70
2018-09-03T10:38:47.973Z,21.50
2018-09-03T10:39:47.973Z,21.00
2018-09-03T10:40:47.975Z,20.50
2018-09-03T10:41:47.999Z,19.80
2018-09-03T10:42:48.007Z,20.20
2018-09-03T10:43:47.978Z,19.90
2018-09-03T10:44:47.994Z,20.30
2018-09-03T10:45:47.986Z,18.70
2018-09-03T10:46:47.988Z,21.20
2018-09-03T10:47:48.016Z,19.50
2018-09-03T10:48:47.987Z,21.80
2018-09-03T10:49:48.027Z,22.10
2018-09-03T10:50:47.991Z,21.50
2018-09-03T10:51:48.023Z,22.10
2018-09-03T10:52:47.996Z,23.00
2018-09-03T10:53:47.996Z,23.60
2018-09-03T10:54:48.024Z,21.80
2018-09-03T10:55:48.000Z,21.90
2018-09-03T10:56:48.001Z,22.90
2018-09-03T10:57:48.031Z,23.50
2018-09-03T10:58:48.008Z,22.50
2018-09-03T10:59:48.933Z,22.70
2018-09-03T11:00:48.005Z,19.40
2018-09-03T11:01:48.036Z,19.50
2018-09-03T11:02:48.937Z,21.20
2018-09-03T11:03:48.014Z,19.50
2018-09-03T11:04:48.013Z,19.60
2018-09-03T11:05:48.017Z,18.70
2018-09-03T11:06:48.046Z,17.90
2018-09-03T11:07:48.017Z,19.30
2018-09-03T11:08:48.022Z,17.90
2018-09-03T11:09:48.022Z,19.50
2018-09-03T11:10:48.042Z,18.10
2018-09-03T11:11:48.051Z,19.50
2018-09-03T11:12:48.032Z,20.20
2018-09-03T11:13:48.030Z,17.50
2018-09-03T11:14:48.031Z,18.30
2018-09-03T11:15:48.037Z,16.70
2018-09-03T11:16:48.060Z,18.40
2018-09-03T11:17:48.040Z,18.20
2018-09-03T11:18:48.043Z,15.60
2018-09-03T11:19:48.959Z,16.20
2018-09-03T11:20:48.045Z,14.90
2018-09-03T11:21:48.075Z,15.50
2018-09-03T11:22:48.048Z,13.90
2018-09-03T11:23:48.052Z,12.70
2018-09-03T11:24:48.082Z,12.80
2018-09-03T11:25:50.114Z,12.60
2018-09-03T11:26:48.092Z,13.80
2018-09-03T11:27:48.061Z,13.30
2018-09-03T11:28:48.082Z,13.80
2018-09-03T11:29:48.069Z,13.50
2018-09-03T11:30:48.097Z,13.40
2018-09-03T11:31:48.080Z,14.00
2018-09-03T11:32:48.073Z,13.10
2018-09-03T11:33:48.077Z,14.40
2018-09-03T11:34:48.081Z,14.40
2018-09-03T11:35:48.106Z,13.50
2018-09-03T11:36:48.086Z,14.20
2018-09-03T11:37:48.095Z,15.10
2018-09-03T11:38:48.090Z,14.10
2018-09-03T11:39:48.095Z,14.30
2018-09-03T11:40:48.152Z,15.40
2018-09-03T11:41:48.106Z,15.20
2018-09-03T11:42:48.099Z,15.40
2018-09-03T11:43:48.104Z,15.10
2018-09-03T11:44:48.116Z,15.90
2018-09-03T11:45:48.125Z,16.10
2018-09-03T11:46:48.116Z,14.00
2018-09-03T11:47:48.114Z,16.20
2018-09-03T11:48:48.116Z,16.50
2018-09-03T11:49:48.120Z,17.60
2018-09-03T11:50:48.150Z,14.80
2018-09-03T11:51:48.125Z,15.60
2018-09-03T11:52:48.130Z,16.60
2018-09-03T11:53:48.133Z,15.10
2018-09-03T11:54:48.165Z,15.70
2018-09-03T11:55:48.141Z,15.50
2018-09-03T11:56:48.219Z,16.10
2018-09-03T11:57:48.156Z,16.80
2018-09-03T11:58:48.146Z,16.10
2018-09-03T11:59:48.174Z,17.40
2018-09-03T12:00:48.154Z,18.30
2018-09-03T12:01:48.151Z,18.40
2018-09-03T12:02:48.160Z,16.90
2018-09-03T12:03:48.163Z,17.20
2018-09-03T12:04:53.615Z,18.10
2018-09-03T12:05:48.167Z,17.10
2018-09-03T12:06:48.182Z,17.80
2018-09-03T12:07:48.175Z,18.90
2018-09-03T12:08:48.179Z,18.30
2018-09-03T12:09:48.213Z,20.00
2018-09-03T12:10:48.184Z,20.30
2018-09-03T12:11:48.191Z,21.00
2018-09-03T12:12:48.184Z,21.20
2018-09-03T12:13:48.220Z,22.70
2018-09-03T12:14:48.195Z,24.00
2018-09-03T12:15:48.200Z,22.00
2018-09-03T12:16:48.201Z,21.60
2018-09-03T12:17:48.205Z,22.20
2018-09-03T12:18:48.232Z,21.60
2018-09-03T12:19:48.214Z,22.90
2018-09-03T12:20:48.217Z,22.50
2018-09-03T12:21:48.214Z,24.60
2018-09-03T12:22:48.215Z,22.60
2018-09-03T12:23:48.245Z,24.50
2018-09-03T12:24:48.222Z,24.40
2018-09-03T12:25:48.228Z,25.90
2018-09-03T12:26:48.226Z,24.70
2018-09-03T12:27:48.234Z,27.80
2018-09-03T12:28:48.258Z,23.80
2018-09-03T12:29:48.231Z,23.60
2018-09-03T12:30:48.235Z,24.20
2018-09-03T12:31:48.243Z,25.40
2018-09-03T12:32:48.240Z,26.00
2018-09-03T12:33:48.267Z,22.80
2018-09-03T12:34:48.243Z,25.80
2018-09-03T12:35:48.243Z,24.30
2018-09-03T12:36:48.250Z,25.20
2018-09-03T12:37:48.260Z,24.90
2018-09-03T12:38:48.280Z,24.00